createdAt,value
2017-05-09T00:05:14.403Z,69.10
2017-05-09T00:07:42.378Z,67.70
2017-05-09T00:10:10.682Z,69.00
2017-05-09T00:12:38.618Z,68.60
2017-05-09T00:15:07.015Z,69.00
2017-05-09T00:17:34.943Z,68.40
2017-05-09T00:20:03.250Z,70.10
2017-05-09T00:22:31.230Z,70.10
2017-05-09T00:24:59.154Z,69.50
2017-05-09T00:27:27.455Z,71.30
2017-05-09T00:29:55.804Z,72.70
2017-05-09T00:32:24.850Z,70.30
2017-05-09T00:42:20.591Z,71.60
2017-05-09T00:44:49.098Z,72.00
2017-05-09T00:47:17.490Z,71.60
2017-05-09T00:49:45.424Z,71.10
2017-05-09T00:52:14.782Z,72.40
2017-05-09T00:57:11.958Z,70.80
2017-05-09T00:59:40.711Z,72.20
2017-05-09T01:02:09.015Z,72.30
2017-05-09T01:04:37.700Z,70.90
2017-05-09T01:07:06.035Z,72.60
2017-05-09T01:09:34.478Z,71.70
2017-05-09T01:12:03.518Z,71.60
2017-05-09T01:14:32.230Z,72.60
2017-05-09T01:19:30.156Z,72.50
2017-05-09T01:21:58.483Z,71.90
2017-05-09T01:24:26.782Z,73.40
2017-05-09T01:26:55.087Z,72.40
2017-05-09T01:29:23.435Z,72.50
2017-05-09T01:31:51.387Z,72.60
2017-05-09T01:34:20.451Z,72.90
2017-05-09T01:36:48.454Z,73.40
2017-05-09T01:39:16.388Z,72.20
2017-05-09T01:41:45.431Z,72.60
2017-05-09T01:44:13.767Z,74.70
2017-05-09T01:46:42.071Z,72.60
2017-05-09T01:51:40.456Z,73.00
2017-05-09T01:54:09.499Z,73.00
2017-05-09T01:56:38.199Z,73.30
2017-05-09T02:04:04.371Z,74.40
2017-05-09T02:06:32.719Z,74.70
2017-05-09T02:09:01.759Z,75.20
2017-05-09T02:13:59.353Z,74.10
2017-05-09T02:16:28.387Z,75.20
2017-05-09T02:18:56.313Z,76.70
2017-05-09T02:21:25.030Z,76.10
2017-05-09T02:23:53.417Z,77.10
2017-05-09T02:26:21.730Z,77.10
2017-05-09T02:28:50.832Z,77.20
2017-05-09T02:31:19.139Z,77.00
2017-05-09T02:33:47.834Z,78.00
2017-05-09T02:38:45.803Z,78.10
2017-05-09T02:41:13.731Z,77.50
2017-05-09T02:43:42.074Z,77.60
2017-05-09T02:46:10.379Z,78.00
2017-05-09T02:51:08.118Z,78.10
2017-05-09T02:53:37.167Z,78.60
2017-05-09T02:56:06.211Z,77.20
2017-05-09T02:58:34.184Z,78.70
2017-05-09T03:01:02.862Z,78.50
2017-05-09T03:03:31.164Z,79.10
2017-05-09T03:08:28.394Z,79.10
2017-05-09T03:10:56.699Z,78.80
2017-05-09T03:13:24.913Z,79.40
2017-05-09T03:15:53.604Z,79.10
2017-05-09T03:18:21.951Z,79.60
2017-05-09T03:23:19.226Z,80.80
2017-05-09T03:25:47.933Z,80.10
2017-05-09T03:28:16.279Z,79.90
2017-05-09T03:30:44.579Z,79.70
2017-05-09T03:33:12.883Z,80.40
2017-05-09T03:35:40.850Z,80.10
2017-05-09T03:40:38.036Z,78.80
2017-05-09T03:43:06.379Z,79.50
2017-05-09T03:45:35.051Z,80.40
2017-05-09T03:50:32.275Z,79.90
2017-05-09T03:53:00.595Z,81.20
2017-05-09T03:55:29.634Z,80.20
2017-05-09T03:57:57.969Z,80.80
2017-05-09T04:02:55.546Z,81.80
2017-05-09T04:05:23.909Z,81.30
2017-05-09T04:07:52.228Z,83.00
2017-05-09T04:10:20.174Z,83.30
2017-05-09T04:12:48.565Z,83.80
2017-05-09T04:15:16.519Z,82.70
2017-05-09T04:17:44.822Z,82.30
2017-05-09T04:22:42.043Z,83.70
2017-05-09T04:25:10.713Z,82.70
2017-05-09T04:27:39.416Z,83.00
2017-05-09T04:30:08.091Z,83.00
2017-05-09T04:32:37.144Z,83.80
2017-05-09T04:35:05.491Z,84.20
2017-05-09T04:37:33.788Z,84.10
2017-05-09T04:40:02.841Z,83.80
2017-05-09T04:42:31.167Z,84.40
2017-05-09T04:44:59.469Z,83.70
2017-05-09T04:47:28.133Z,84.10
2017-05-09T04:52:26.102Z,84.80
2017-05-09T04:54:54.411Z,86.00
2017-05-09T04:57:22.758Z,85.90
2017-05-09T04:59:50.714Z,86.00
2017-05-09T05:02:19.038Z,86.70
2017-05-09T05:04:47.767Z,86.10
2017-05-09T05:07:16.071Z,86.10
2017-05-09T05:09:43.994Z,85.90
2017-05-09T05:12:12.322Z,86.80
2017-05-09T05:14:40.251Z,85.90
2017-05-09T05:17:08.200Z,86.60
2017-05-09T05:19:36.551Z,86.70
2017-05-09T05:22:04.855Z,86.20
2017-05-09T05:24:33.159Z,87.60
2017-05-09T05:27:01.503Z,87.00
2017-05-09T05:29:29.438Z,86.40
2017-05-09T05:31:57.738Z,86.90
2017-05-09T05:34:26.760Z,85.30
2017-05-09T05:36:55.434Z,85.10
2017-05-09T05:39:23.755Z,86.10
2017-05-09T05:44:21.764Z,84.80
2017-05-09T05:46:49.707Z,84.80
2017-05-09T05:49:17.734Z,85.20
2017-05-09T05:51:46.821Z,85.50
2017-05-09T05:54:15.871Z,84.40
2017-05-09T05:56:44.479Z,82.50
2017-05-09T05:59:12.402Z,82.10
2017-05-09T06:01:41.074Z,82.70
2017-05-09T06:04:09.442Z,82.60
2017-05-09T06:06:37.762Z,81.50
2017-05-09T06:11:35.682Z,80.30
2017-05-09T06:16:32.891Z,80.50
2017-05-09T06:21:30.499Z,78.50
2017-05-09T06:23:59.542Z,77.50
2017-05-09T06:26:27.884Z,80.50
2017-05-09T06:28:56.182Z,77.10
2017-05-09T06:33:54.159Z,75.40
2017-05-09T06:36:22.473Z,77.80
2017-05-09T06:38:50.814Z,78.50
2017-05-09T06:41:19.540Z,78.30
2017-05-09T06:43:48.611Z,76.60
2017-05-09T06:51:15.155Z,74.30
2017-05-09T06:53:43.459Z,74.60
2017-05-09T06:58:41.050Z,73.40
2017-05-09T07:03:38.279Z,71.50
2017-05-09T07:06:06.595Z,72.20
2017-05-09T07:11:04.080Z,70.50
2017-05-09T07:13:32.379Z,70.20
2017-05-09T07:18:30.326Z,66.00
2017-05-09T07:20:58.624Z,68.10
2017-05-09T07:23:26.923Z,67.30
2017-05-09T07:25:55.275Z,65.40
2017-05-09T07:28:23.595Z,65.10
2017-05-09T07:35:50.495Z,63.20
2017-05-09T07:38:19.572Z,64.50
2017-05-09T07:40:48.370Z,60.50
2017-05-09T07:43:17.054Z,59.40
2017-05-09T07:50:43.358Z,61.90
2017-05-09T07:58:09.455Z,59.40
2017-05-09T08:00:37.769Z,57.00
2017-05-09T08:03:06.125Z,59.80
2017-05-09T08:05:34.415Z,59.50
2017-05-09T08:08:02.710Z,57.80
2017-05-09T08:10:31.491Z,58.40
2017-05-09T08:15:29.047Z,55.50
2017-05-09T08:22:55.890Z,57.00
2017-05-09T08:27:53.122Z,56.00
2017-05-09T08:32:51.115Z,53.70
2017-05-09T08:35:19.442Z,55.20
2017-05-09T08:40:16.679Z,56.00
2017-05-09T08:42:45.719Z,56.30
2017-05-09T08:45:14.013Z,56.80
2017-05-09T08:47:41.986Z,56.20
2017-05-09T08:50:10.286Z,54.40
2017-05-09T08:52:38.590Z,50.30
2017-05-09T08:55:06.694Z,48.40
2017-05-09T08:57:34.981Z,49.60
2017-05-09T09:00:03.287Z,46.70
2017-05-09T09:02:31.627Z,46.00
2017-05-09T09:05:00.659Z,49.00
2017-05-09T09:07:28.579Z,48.90
2017-05-09T09:09:56.907Z,45.50
2017-05-09T09:12:24.831Z,42.00
2017-05-09T09:14:53.153Z,42.00
2017-05-09T09:17:21.147Z,41.20
2017-05-09T09:19:49.140Z,43.70
2017-05-09T09:22:17.475Z,41.90
2017-05-09T09:24:46.148Z,44.40
2017-05-09T09:30:08.199Z,38.60
2017-05-09T09:32:36.610Z,41.00
2017-05-09T09:35:04.539Z,35.10
2017-05-09T09:37:32.883Z,33.70
2017-05-09T09:40:00.810Z,38.40
2017-05-09T09:42:29.267Z,36.60
2017-05-09T09:44:57.855Z,38.50
2017-05-09T09:47:26.528Z,39.70
2017-05-09T09:49:54.818Z,35.90
2017-05-09T09:52:22.792Z,33.80
2017-05-09T09:54:50.727Z,35.70
2017-05-09T09:57:19.046Z,36.50
2017-05-09T09:59:47.022Z,37.80
2017-05-09T10:02:14.950Z,40.40
2017-05-09T10:07:12.238Z,36.50
2017-05-09T10:09:40.532Z,35.90
2017-05-09T10:12:08.836Z,33.60
2017-05-09T10:17:06.335Z,38.80
2017-05-09T10:19:34.652Z,36.50
2017-05-09T10:27:00.359Z,35.90
2017-05-09T10:29:28.358Z,38.30
2017-05-09T10:31:56.651Z,37.80
2017-05-09T10:34:24.579Z,39.30
2017-05-09T10:36:52.950Z,39.50
2017-05-09T10:39:21.627Z,39.10
2017-05-09T10:41:49.937Z,39.30
2017-05-09T10:44:19.057Z,37.40
2017-05-09T10:46:47.726Z,40.60
2017-05-09T10:49:16.023Z,39.00
2017-05-09T10:51:44.344Z,39.40
2017-05-09T10:54:12.639Z,39.30
2017-05-09T10:59:10.223Z,38.40
2017-05-09T11:01:38.528Z,36.90
2017-05-09T11:04:06.838Z,37.60
2017-05-09T11:06:35.178Z,36.70
2017-05-09T11:11:32.348Z,40.90
2017-05-09T11:14:00.783Z,37.70
2017-05-09T11:18:58.688Z,35.90
2017-05-09T11:21:26.671Z,35.10
2017-05-09T11:23:55.327Z,35.70
2017-05-09T11:26:23.627Z,38.00
2017-05-09T11:31:21.240Z,37.20
2017-05-09T11:33:49.549Z,35.30
2017-05-09T11:36:19.070Z,35.70
2017-05-09T11:41:16.280Z,36.20
2017-05-09T11:43:44.651Z,36.50
2017-05-09T11:46:12.574Z,35.20
2017-05-09T11:48:40.864Z,35.60
2017-05-09T11:51:09.223Z,35.20
2017-05-09T11:53:38.271Z,37.00
2017-05-09T11:56:06.209Z,39.10
2017-05-09T11:58:34.565Z,37.50
2017-05-09T12:01:03.232Z,39.80
2017-05-09T12:03:31.523Z,38.70
2017-05-09T12:05:59.978Z,37.50
2017-05-09T12:08:28.639Z,38.90
2017-05-09T12:10:56.934Z,37.40
2017-05-09T12:13:26.018Z,38.30
2017-05-09T12:15:54.311Z,38.00
2017-05-09T12:18:22.615Z,36.70
2017-05-09T12:23:19.496Z,38.20
2017-05-09T12:25:47.420Z,32.90
2017-05-09T12:28:16.495Z,37.50
2017-05-09T12:30:44.790Z,38.10
2017-05-09T12:33:13.074Z,39.70
2017-05-09T12:35:41.402Z,38.00
2017-05-09T12:38:10.067Z,37.40
2017-05-09T12:40:38.387Z,36.10
2017-05-09T12:43:07.108Z,38.90
2017-05-09T12:45:35.415Z,39.00
2017-05-09T12:48:03.712Z,38.70
2017-05-09T12:50:32.791Z,42.30
2017-05-09T12:53:00.717Z,38.00
2017-05-09T12:55:29.006Z,39.60
2017-05-09T12:57:58.094Z,41.70
2017-05-09T13:02:56.003Z,35.60
2017-05-09T13:05:25.239Z,39.10
2017-05-09T13:07:53.534Z,39.20
2017-05-09T13:12:50.766Z,38.30
2017-05-09T13:15:19.065Z,38.70
2017-05-09T13:20:16.654Z,37.50
2017-05-09T13:22:44.947Z,38.10
2017-05-09T13:25:12.867Z,39.60
2017-05-09T13:30:10.567Z,36.20
2017-05-09T13:32:39.228Z,37.60
2017-05-09T13:35:07.577Z,38.10
2017-05-09T13:37:35.870Z,37.30
2017-05-09T13:40:04.171Z,38.00
2017-05-09T13:50:00.669Z,37.00
2017-05-09T13:52:28.598Z,34.70
2017-05-09T13:54:56.522Z,34.50
2017-05-09T13:57:24.887Z,32.00
2017-05-09T13:59:53.922Z,31.40
2017-05-09T14:02:21.876Z,31.90
2017-05-09T14:04:50.649Z,34.80
2017-05-09T14:07:19.728Z,36.70
2017-05-09T14:09:48.780Z,37.20
2017-05-09T14:12:17.157Z,36.80
2017-05-09T14:14:45.456Z,37.00
2017-05-09T14:17:13.751Z,38.80
2017-05-09T14:19:42.094Z,39.30
2017-05-09T14:22:11.139Z,38.90
2017-05-09T14:24:39.072Z,36.60
2017-05-09T14:27:07.786Z,38.00
2017-05-09T14:29:36.082Z,38.60
2017-05-09T14:32:04.013Z,37.60
2017-05-09T14:34:32.790Z,38.90
2017-05-09T14:37:00.727Z,35.80
2017-05-09T14:39:29.406Z,39.70
2017-05-09T14:41:59.058Z,40.60
2017-05-09T14:44:27.729Z,39.40
2017-05-09T14:46:56.059Z,41.30
2017-05-09T14:49:24.801Z,39.70
2017-05-09T14:54:22.415Z,40.40
2017-05-09T14:56:50.425Z,37.60
2017-05-09T14:59:18.381Z,39.30
2017-05-09T15:01:47.062Z,39.30
2017-05-09T15:04:15.051Z,40.20
2017-05-09T15:06:42.980Z,39.30
2017-05-09T15:09:11.651Z,41.50
2017-05-09T15:11:39.997Z,41.60
2017-05-09T15:14:07.931Z,39.30
2017-05-09T15:16:35.859Z,40.70
2017-05-09T15:19:04.850Z,40.70
2017-05-09T15:21:33.518Z,37.80
2017-05-09T15:24:01.447Z,38.90
2017-05-09T15:26:30.554Z,42.00
2017-05-09T15:31:27.743Z,39.70
2017-05-09T15:33:56.150Z,37.80
2017-05-09T15:36:24.127Z,39.00
2017-05-09T15:38:52.466Z,40.20
2017-05-09T15:41:21.088Z,39.60
2017-05-09T15:43:49.413Z,39.10
2017-05-09T15:46:17.749Z,40.90
2017-05-09T15:48:46.528Z,42.70
2017-05-09T15:51:14.851Z,42.80
2017-05-09T15:56:13.004Z,41.30
2017-05-09T15:58:41.325Z,42.50
2017-05-09T16:01:09.264Z,43.90
2017-05-09T16:06:06.616Z,41.80
2017-05-09T16:08:35.666Z,37.20
2017-05-09T16:11:04.048Z,41.20
2017-05-09T16:16:00.859Z,40.60
2017-05-09T16:18:29.229Z,41.90
2017-05-09T16:20:58.278Z,43.00
2017-05-09T16:23:26.594Z,43.70
2017-05-09T16:25:54.967Z,43.90
2017-05-09T16:28:22.931Z,43.10
2017-05-09T16:30:51.340Z,44.10
2017-05-09T16:33:19.716Z,43.70
2017-05-09T16:35:48.467Z,44.60
2017-05-09T16:38:16.780Z,45.20
2017-05-09T16:40:45.420Z,43.90
2017-05-09T16:43:13.407Z,45.50
2017-05-09T16:45:41.343Z,44.20
2017-05-09T16:48:09.811Z,46.20
2017-05-09T16:50:38.125Z,45.70
2017-05-09T16:53:06.422Z,45.10
2017-05-09T16:58:03.680Z,43.70
2017-05-09T17:00:31.991Z,43.10
2017-05-09T17:03:00.391Z,44.40
2017-05-09T17:05:28.371Z,44.00
2017-05-09T17:07:56.693Z,45.00
2017-05-09T17:12:54.109Z,46.70
2017-05-09T17:15:22.449Z,42.70
2017-05-09T17:17:50.848Z,43.10
2017-05-09T17:20:19.176Z,42.30
2017-05-09T17:22:47.123Z,44.90
2017-05-09T17:25:15.214Z,45.20
2017-05-09T17:32:41.519Z,45.90
2017-05-09T17:35:09.464Z,46.00
2017-05-09T17:37:37.387Z,46.40
2017-05-09T17:40:06.035Z,46.10
2017-05-09T17:42:34.704Z,46.60
2017-05-09T17:45:03.019Z,47.00
2017-05-09T17:47:31.635Z,47.80
2017-05-09T17:50:00.675Z,48.20
2017-05-09T17:52:28.986Z,46.70
2017-05-09T17:57:26.415Z,47.30
2017-05-09T17:59:54.720Z,48.30
2017-05-09T18:02:22.728Z,48.20
2017-05-09T18:04:51.039Z,46.20
2017-05-09T18:07:18.984Z,47.60
2017-05-09T18:09:46.970Z,47.90
2017-05-09T18:12:15.275Z,47.10
2017-05-09T18:14:43.211Z,48.10
2017-05-09T18:17:11.563Z,48.80
2017-05-09T18:19:40.238Z,49.00
2017-05-09T18:22:08.543Z,49.00
2017-05-09T18:24:36.941Z,50.80
2017-05-09T18:29:34.122Z,51.00
2017-05-09T18:32:03.258Z,51.00
2017-05-09T18:39:29.373Z,54.20
2017-05-09T18:41:58.423Z,52.90
2017-05-09T18:49:24.813Z,53.20
2017-05-09T18:54:23.023Z,53.30
2017-05-09T18:56:51.035Z,54.50
2017-05-09T18:59:19.794Z,53.10
2017-05-09T19:01:48.172Z,53.00
2017-05-09T19:06:45.800Z,54.40
2017-05-09T19:09:14.102Z,53.80
2017-05-09T19:11:42.431Z,55.40
2017-05-09T19:14:10.424Z,55.60
2017-05-09T19:16:38.724Z,55.60
2017-05-09T19:19:07.041Z,56.30
2017-05-09T19:29:02.885Z,57.40
2017-05-09T19:31:30.818Z,56.90
2017-05-09T19:33:58.792Z,57.60
2017-05-09T19:36:26.819Z,58.80
2017-05-09T19:38:55.155Z,57.40
2017-05-09T19:41:23.120Z,59.10
2017-05-09T19:43:51.117Z,59.30
2017-05-09T19:46:19.503Z,59.40
2017-05-09T19:48:47.868Z,59.90
2017-05-09T19:51:16.975Z,59.70
2017-05-09T19:53:45.279Z,59.70
2017-05-09T19:58:43.107Z,61.70
2017-05-09T20:01:11.887Z,61.10
2017-05-09T20:03:40.199Z,62.10
2017-05-09T20:06:09.840Z,62.60
2017-05-09T20:08:38.524Z,61.30
2017-05-09T20:11:06.459Z,61.40
2017-05-09T20:13:34.436Z,61.80
2017-05-09T20:16:02.738Z,61.80
2017-05-09T20:18:30.671Z,63.70
2017-05-09T20:21:02.487Z,64.30
2017-05-09T20:23:31.150Z,65.20
2017-05-09T20:25:59.446Z,65.90
2017-05-09T20:28:28.168Z,66.60
2017-05-09T20:35:54.807Z,66.60
2017-05-09T20:40:52.784Z,66.70
2017-05-09T20:43:21.063Z,67.10
2017-05-09T20:45:50.120Z,67.70
2017-05-09T20:48:18.051Z,66.90
2017-05-09T20:50:46.391Z,66.20
2017-05-09T20:53:14.328Z,66.10
2017-05-09T20:55:42.626Z,66.70
2017-05-09T20:58:11.324Z,68.00
2017-05-09T21:00:39.623Z,66.60
2017-05-09T21:03:07.918Z,66.30
2017-05-09T21:05:37.032Z,66.00
2017-05-09T21:08:04.967Z,66.50
2017-05-09T21:10:34.026Z,68.00
2017-05-09T21:15:31.826Z,67.50
2017-05-09T21:18:00.122Z,68.00
2017-05-09T21:20:28.458Z,68.90
2017-05-09T21:25:25.634Z,68.70
2017-05-09T21:27:55.458Z,68.80
2017-05-09T21:30:24.188Z,68.20
2017-05-09T21:32:52.130Z,68.80
2017-05-09T21:35:20.750Z,70.00
2017-05-09T21:37:49.063Z,70.50
2017-05-09T21:40:17.366Z,70.10
2017-05-09T21:42:46.475Z,70.90
2017-05-09T21:45:14.762Z,71.00
2017-05-09T21:47:43.059Z,72.50
2017-05-09T21:50:11.018Z,72.60
2017-05-09T22:00:06.027Z,74.50
2017-05-09T22:02:33.942Z,73.80
2017-05-09T22:05:02.292Z,74.80
2017-05-09T22:07:30.586Z,73.30
2017-05-09T22:12:27.840Z,73.70
2017-05-09T22:14:56.135Z,73.90
2017-05-09T22:17:24.803Z,74.60
2017-05-09T22:22:22.419Z,73.40
2017-05-09T22:24:50.369Z,74.00
2017-05-09T22:27:18.730Z,73.40
2017-05-09T22:29:46.675Z,73.90
2017-05-09T22:32:15.707Z,73.80
2017-05-09T22:34:44.054Z,73.60
2017-05-09T22:37:12.343Z,75.20
2017-05-09T22:42:09.942Z,74.30
2017-05-09T22:44:38.247Z,73.70
2017-05-09T22:49:35.491Z,75.20
2017-05-09T22:52:03.779Z,74.70
2017-05-09T22:54:31.707Z,74.80
2017-05-09T22:59:29.960Z,74.40
2017-05-09T23:01:58.259Z,74.30
2017-05-09T23:04:27.022Z,74.70
2017-05-09T23:09:24.935Z,75.20
2017-05-09T23:11:53.282Z,75.00
2017-05-09T23:14:21.596Z,74.80
2017-05-09T23:16:49.546Z,73.80
2017-05-09T23:19:18.549Z,74.30
2017-05-09T23:21:46.855Z,74.00
2017-05-09T23:24:15.887Z,74.30
2017-05-09T23:26:44.974Z,75.40
2017-05-09T23:31:42.514Z,75.30
2017-05-09T23:34:10.863Z,75.50
2017-05-09T23:39:08.043Z,75.80
2017-05-09T23:41:36.380Z,76.50
2017-05-09T23:46:34.292Z,75.90
2017-05-09T23:49:02.623Z,76.50
2017-05-09T23:51:30.920Z,76.40
2017-05-09T23:53:59.210Z,75.70
2017-05-09T23:58:57.166Z,76.00
